createdAt,value
2023-02-02T00:02:04.199Z,5.53
2023-02-02T00:04:32.821Z,5.20
2023-02-02T00:07:00.309Z,4.93
2023-02-02T00:09:31.520Z,4.38
2023-02-02T00:11:59.788Z,5.15
2023-02-02T00:14:27.083Z,4.93
2023-02-02T00:16:55.296Z,4.70
2023-02-02T00:19:24.715Z,4.60
2023-02-02T00:21:51.787Z,5.30
2023-02-02T00:24:19.480Z,4.85
2023-02-02T00:26:51.042Z,5.32
2023-02-02T00:29:25.482Z,4.25
2023-02-02T00:31:52.895Z,4.70
2023-02-02T00:34:20.517Z,5.70
2023-02-02T00:36:48.017Z,3.88
2023-02-02T00:39:18.552Z,4.43
2023-02-02T00:41:46.219Z,4.65
2023-02-02T00:44:32.269Z,4.78
2023-02-02T00:46:59.403Z,4.43
2023-02-02T00:49:26.611Z,5.05
2023-02-02T00:51:53.703Z,4.20
2023-02-02T00:54:20.848Z,4.80
2023-02-02T00:56:48.180Z,4.10
2023-02-02T00:59:15.421Z,5.60
2023-02-02T01:01:42.500Z,4.82
2023-02-02T01:04:09.571Z,4.38
2023-02-02T01:06:36.714Z,4.63
2023-02-02T01:09:04.569Z,3.83
2023-02-02T01:11:32.795Z,3.60
2023-02-02T01:13:59.909Z,2.88
2023-02-02T01:16:27.109Z,2.70
2023-02-02T01:18:54.347Z,2.83
2023-02-02T01:21:21.911Z,2.65
2023-02-02T01:23:49.405Z,2.30
2023-02-02T01:26:17.421Z,2.08
2023-02-02T01:28:44.573Z,3.05
2023-02-02T01:31:13.514Z,2.25
2023-02-02T01:33:41.145Z,1.92
2023-02-02T01:36:10.632Z,2.60
2023-02-02T01:38:38.045Z,2.42
2023-02-02T01:41:05.232Z,3.10
2023-02-02T01:43:47.262Z,2.17
2023-02-02T01:46:18.189Z,2.20
2023-02-02T01:48:51.275Z,2.00
2023-02-02T01:51:21.564Z,1.92
2023-02-02T01:53:50.890Z,1.40
2023-02-02T01:56:39.228Z,1.75
2023-02-02T01:59:06.569Z,2.03
2023-02-02T02:01:33.321Z,1.20
2023-02-02T02:04:00.129Z,1.90
2023-02-02T02:06:28.241Z,1.48
2023-02-02T02:09:04.137Z,1.55
2023-02-02T02:11:33.516Z,3.10
2023-02-02T02:14:22.108Z,2.20
2023-02-02T02:20:06.255Z,2.20
2023-02-02T02:23:18.875Z,2.63
2023-02-02T02:26:33.801Z,2.22
2023-02-02T02:29:25.066Z,3.35
2023-02-02T02:32:19.876Z,2.83
2023-02-02T02:34:58.004Z,2.67
2023-02-02T02:37:55.180Z,3.90
2023-02-02T02:40:45.716Z,3.60
2023-02-02T02:43:21.342Z,3.53
2023-02-02T02:45:48.521Z,4.50
2023-02-02T02:48:15.392Z,4.70
2023-02-02T02:50:42.225Z,4.70
2023-02-02T02:53:14.268Z,4.45
2023-02-02T02:56:14.430Z,4.68
2023-02-02T02:59:09.326Z,5.25
2023-02-02T03:02:11.015Z,5.03
2023-02-02T03:04:50.292Z,4.93
2023-02-02T03:07:29.840Z,4.22
2023-02-02T03:10:01.184Z,5.00
2023-02-02T03:12:28.088Z,4.40
2023-02-02T03:14:54.746Z,5.00
2023-02-02T03:17:21.431Z,5.03
2023-02-02T03:19:48.099Z,4.47
2023-02-02T03:22:14.758Z,4.97
2023-02-02T03:24:41.451Z,4.93
2023-02-02T03:27:08.087Z,4.90
2023-02-02T03:29:34.895Z,5.20
2023-02-02T03:32:01.624Z,5.00
2023-02-02T03:34:28.295Z,6.07
2023-02-02T03:36:54.954Z,4.70
2023-02-02T03:39:21.672Z,5.18
2023-02-02T03:41:48.336Z,4.22
2023-02-02T03:44:15.074Z,4.18
2023-02-02T03:46:41.767Z,4.97
2023-02-02T03:49:08.567Z,5.13
2023-02-02T03:51:35.289Z,6.40
2023-02-02T03:54:01.948Z,4.90
2023-02-02T03:56:28.634Z,5.53
2023-02-02T03:58:55.292Z,5.32
2023-02-02T04:01:28.045Z,4.45
2023-02-02T04:03:55.620Z,5.07
2023-02-02T04:06:22.878Z,4.68
2023-02-02T04:08:49.736Z,4.60
2023-02-02T04:11:17.397Z,4.82
2023-02-02T04:13:44.639Z,4.93
2023-02-02T04:16:12.942Z,4.05
2023-02-02T04:18:39.634Z,3.83
2023-02-02T04:21:07.523Z,4.82
2023-02-02T04:23:34.673Z,4.80
2023-02-02T04:26:01.378Z,4.72
2023-02-02T04:28:28.717Z,5.13
2023-02-02T04:30:56.359Z,5.15
2023-02-02T04:33:24.777Z,4.45
2023-02-02T04:35:51.509Z,4.53
2023-02-02T04:38:18.520Z,4.53
2023-02-02T04:40:46.704Z,4.72
2023-02-02T04:43:13.928Z,4.07
2023-02-02T04:45:42.252Z,4.35
2023-02-02T04:48:09.217Z,4.05
2023-02-02T04:50:35.969Z,4.53
2023-02-02T04:53:04.319Z,3.47
2023-02-02T04:55:31.007Z,4.47
2023-02-02T04:57:57.670Z,4.00
2023-02-02T05:00:24.803Z,4.80
2023-02-02T05:02:51.485Z,5.47
2023-02-02T05:05:18.227Z,4.72
2023-02-02T05:07:44.952Z,5.40
2023-02-02T05:10:11.987Z,5.05
2023-02-02T05:12:38.797Z,5.00
2023-02-02T05:15:05.998Z,4.47
2023-02-02T05:17:33.093Z,5.13
2023-02-02T05:19:59.827Z,4.57
2023-02-02T05:22:26.965Z,4.20
2023-02-02T05:24:53.641Z,5.18
2023-02-02T05:27:21.021Z,4.35
2023-02-02T05:29:48.448Z,4.78
2023-02-02T05:32:15.219Z,5.32
2023-02-02T05:34:41.987Z,4.82
2023-02-02T05:37:08.924Z,4.47
2023-02-02T05:39:35.646Z,4.00
2023-02-02T05:42:02.498Z,4.13
2023-02-02T05:44:29.291Z,4.50
2023-02-02T05:46:55.990Z,3.70
2023-02-02T05:49:22.651Z,3.53
2023-02-02T05:51:53.803Z,4.30
2023-02-02T05:54:21.222Z,4.25
2023-02-02T05:56:49.950Z,3.50
2023-02-02T06:01:45.400Z,4.05
2023-02-02T06:04:12.495Z,4.10
2023-02-02T06:06:39.888Z,4.20
2023-02-02T06:09:07.323Z,3.83
2023-02-02T06:11:34.994Z,4.22
2023-02-02T06:14:01.698Z,3.55
2023-02-02T06:16:28.346Z,4.20
2023-02-02T06:18:55.042Z,3.83
2023-02-02T06:21:24.699Z,4.40
2023-02-02T06:23:52.118Z,4.43
2023-02-02T06:26:19.418Z,3.65
2023-02-02T06:28:50.636Z,3.60
2023-02-02T06:31:20.452Z,3.83
2023-02-02T06:33:55.033Z,4.13
2023-02-02T06:36:22.698Z,3.80
2023-02-02T06:38:54.504Z,4.28
2023-02-02T06:41:21.740Z,3.95
2023-02-02T06:43:48.989Z,3.85
2023-02-02T06:46:15.968Z,3.72
2023-02-02T06:48:42.806Z,4.18
2023-02-02T06:51:09.572Z,3.97
2023-02-02T06:53:36.426Z,4.07
2023-02-02T06:56:06.070Z,3.75
2023-02-02T06:58:33.646Z,3.70
2023-02-02T07:01:05.711Z,4.65
2023-02-02T07:03:33.270Z,4.20
2023-02-02T07:06:09.808Z,3.75
2023-02-02T07:08:36.500Z,4.65
2023-02-02T07:11:14.738Z,4.45
2023-02-02T07:13:46.905Z,4.80
2023-02-02T07:16:15.063Z,4.13
2023-02-02T07:18:43.496Z,4.28
2023-02-02T07:21:17.979Z,4.55
2023-02-02T07:23:44.850Z,4.32
2023-02-02T07:26:13.702Z,4.68
2023-02-02T07:28:40.484Z,4.68
2023-02-02T07:31:17.672Z,5.38
2023-02-02T07:33:45.388Z,4.50
2023-02-02T07:36:16.185Z,4.20
2023-02-02T07:38:43.779Z,4.50
2023-02-02T07:41:10.627Z,4.30
2023-02-02T07:43:37.427Z,4.68
2023-02-02T07:46:08.136Z,3.92
2023-02-02T07:48:35.263Z,4.15
2023-02-02T07:51:06.801Z,4.20
2023-02-02T07:53:34.446Z,4.82
2023-02-02T07:56:12.888Z,4.20
2023-02-02T07:58:44.823Z,3.97
2023-02-02T08:01:13.968Z,4.60
2023-02-02T08:03:41.221Z,4.53
2023-02-02T08:06:20.822Z,4.68
2023-02-02T08:08:48.672Z,4.57
2023-02-02T08:11:17.738Z,4.33
2023-02-02T08:13:44.840Z,4.30
2023-02-02T08:16:12.828Z,5.68
2023-02-02T08:18:40.180Z,3.58
2023-02-02T08:21:10.899Z,3.55
2023-02-02T08:23:39.235Z,3.92
2023-02-02T08:26:13.536Z,4.40
2023-02-02T08:28:42.237Z,3.70
2023-02-02T08:33:39.742Z,4.18
2023-02-02T08:36:14.211Z,3.78
2023-02-02T08:38:41.597Z,3.72
2023-02-02T08:41:10.871Z,3.72
2023-02-02T08:43:37.542Z,3.13
2023-02-02T08:46:05.945Z,3.85
2023-02-02T08:48:34.641Z,3.78
2023-02-02T08:51:01.930Z,3.45
2023-02-02T08:53:28.933Z,4.05
2023-02-02T08:56:07.375Z,4.20
2023-02-02T08:58:35.033Z,4.30
2023-02-02T09:01:06.394Z,3.80
2023-02-02T09:03:33.338Z,3.78
2023-02-02T09:06:08.489Z,4.43
2023-02-02T09:08:35.834Z,4.35
2023-02-02T09:11:28.986Z,3.90
2023-02-02T09:13:57.725Z,3.88
2023-02-02T09:18:52.099Z,3.67
2023-02-02T09:21:20.406Z,3.67
2023-02-02T09:23:48.984Z,3.92
2023-02-02T09:26:23.793Z,4.40
2023-02-02T09:28:56.433Z,4.80
2023-02-02T09:31:24.908Z,3.45
2023-02-02T09:33:51.915Z,4.85
2023-02-02T09:36:20.728Z,3.65
2023-02-02T09:41:34.390Z,3.95
2023-02-02T09:44:19.277Z,3.78
2023-02-02T09:47:15.246Z,3.53
2023-02-02T09:50:03.598Z,4.72
2023-02-02T09:52:47.697Z,3.75
2023-02-02T09:55:44.167Z,4.97
2023-02-02T09:58:27.204Z,4.05
2023-02-02T10:01:16.353Z,3.88
2023-02-02T10:04:07.705Z,3.72
2023-02-02T10:06:59.222Z,3.80
2023-02-02T10:09:54.632Z,4.15
2023-02-02T10:12:41.409Z,3.72
2023-02-02T10:15:55.716Z,4.28
2023-02-02T10:18:34.199Z,3.70
2023-02-02T10:21:04.729Z,3.92
2023-02-02T10:23:36.777Z,3.70
2023-02-02T10:26:23.094Z,3.60
2023-02-02T10:29:16.257Z,3.80
2023-02-02T10:31:59.669Z,4.13
2023-02-02T10:35:12.649Z,4.85
2023-02-02T10:38:00.994Z,3.50
2023-02-02T10:40:46.583Z,4.35
2023-02-02T10:43:31.747Z,3.88
2023-02-02T10:46:01.434Z,4.13
2023-02-02T10:48:35.839Z,4.05
2023-02-02T10:51:17.815Z,3.83
2023-02-02T10:53:51.237Z,3.53
2023-02-02T10:56:24.550Z,3.50
2023-02-02T10:58:57.013Z,3.53
2023-02-02T11:01:23.758Z,4.50
2023-02-02T11:04:10.870Z,3.78
2023-02-02T11:06:49.917Z,4.60
2023-02-02T11:09:32.765Z,3.70
2023-02-02T11:12:14.602Z,4.28
2023-02-02T11:14:56.684Z,3.35
2023-02-02T11:17:25.409Z,4.07
2023-02-02T11:22:38.507Z,3.85
2023-02-02T11:25:07.739Z,3.10
2023-02-02T11:27:41.326Z,3.53
2023-02-02T11:30:29.488Z,4.00
2023-02-02T11:32:56.463Z,3.72
2023-02-02T11:35:25.559Z,3.38
2023-02-02T11:37:56.044Z,3.33
2023-02-02T11:40:34.325Z,3.30
2023-02-02T11:43:04.945Z,3.60
2023-02-02T11:45:35.440Z,3.03
2023-02-02T11:48:14.270Z,3.10
2023-02-02T11:50:47.700Z,3.60
2023-02-02T11:53:27.560Z,3.10
2023-02-02T11:55:56.155Z,3.55
2023-02-02T11:58:27.683Z,3.20
2023-02-02T12:00:57.965Z,3.47
2023-02-02T12:03:39.998Z,3.08
2023-02-02T12:06:33.165Z,2.72
2023-02-02T12:09:02.500Z,3.20
2023-02-02T12:11:41.322Z,4.20
2023-02-02T12:14:38.769Z,2.83
2023-02-02T12:17:35.091Z,3.80
2023-02-02T12:20:33.313Z,4.47
2023-02-02T12:23:10.824Z,3.25
2023-02-02T12:25:54.399Z,2.50
2023-02-02T12:28:24.093Z,2.95
2023-02-02T12:31:04.745Z,3.33
2023-02-02T12:33:53.284Z,3.13
2023-02-02T12:36:32.733Z,3.63
2023-02-02T12:39:10.892Z,3.05
2023-02-02T12:42:00.323Z,3.53
2023-02-02T12:44:31.694Z,3.13
2023-02-02T12:47:03.968Z,2.95
2023-02-02T12:49:48.639Z,3.28
2023-02-02T12:52:20.003Z,2.60
2023-02-02T12:55:03.526Z,2.58
2023-02-02T12:57:45.273Z,3.28
2023-02-02T13:00:42.712Z,3.88
2023-02-02T13:03:09.412Z,2.17
2023-02-02T13:06:00.946Z,3.00
2023-02-02T13:08:33.797Z,2.63
2023-02-02T13:11:30.354Z,6.93
2023-02-02T13:14:05.545Z,3.65
2023-02-02T13:16:35.255Z,2.95
2023-02-02T13:19:07.014Z,3.03
2023-02-02T13:21:37.038Z,2.60
2023-02-02T13:24:06.531Z,3.40
2023-02-02T13:26:38.907Z,3.20
2023-02-02T13:29:23.065Z,2.75
2023-02-02T13:32:21.177Z,2.70
2023-02-02T13:34:53.473Z,2.17
2023-02-02T13:37:46.385Z,2.33
2023-02-02T13:40:36.541Z,2.85
2023-02-02T13:43:41.934Z,2.85
2023-02-02T13:46:36.065Z,2.47
2023-02-02T13:49:27.530Z,1.92
2023-02-02T13:52:12.289Z,1.73
2023-02-02T13:54:50.447Z,1.85
2023-02-02T13:57:21.906Z,1.80
2023-02-02T14:00:00.662Z,1.75
2023-02-02T14:02:39.765Z,1.35
2023-02-02T14:05:08.049Z,1.30
2023-02-02T14:07:46.820Z,1.80
2023-02-02T14:10:28.333Z,1.10
2023-02-02T14:12:56.138Z,1.25
2023-02-02T14:15:41.081Z,1.00
2023-02-02T14:18:08.097Z,0.90
2023-02-02T14:20:48.495Z,0.80
2023-02-02T14:23:51.065Z,0.98
2023-02-02T14:26:39.233Z,1.27
2023-02-02T14:29:31.124Z,1.00
2023-02-02T14:32:21.163Z,1.00
2023-02-02T14:34:49.127Z,1.05
2023-02-02T14:37:25.183Z,1.00
2023-02-02T14:40:18.191Z,1.02
2023-02-02T14:43:44.979Z,1.10
2023-02-02T14:46:14.663Z,0.93
2023-02-02T14:49:06.827Z,1.30
2023-02-02T14:51:46.301Z,1.20
2023-02-02T14:54:42.155Z,1.48
2023-02-02T14:57:35.015Z,1.42
2023-02-02T15:00:01.910Z,2.13
2023-02-02T15:02:37.654Z,2.30
2023-02-02T15:05:29.249Z,1.92
2023-02-02T15:08:27.789Z,2.22
2023-02-02T15:13:37.417Z,2.65
2023-02-02T15:16:24.847Z,3.22
2023-02-02T15:19:01.937Z,3.40
2023-02-02T15:21:31.611Z,3.58
2023-02-02T15:23:58.811Z,3.38
2023-02-02T15:26:37.390Z,3.53
2023-02-02T15:31:36.497Z,3.13
2023-02-02T15:34:45.101Z,3.25
2023-02-02T15:37:22.938Z,4.38
2023-02-02T15:39:55.868Z,3.87
2023-02-02T15:42:45.670Z,3.97
2023-02-02T15:45:35.468Z,3.97
2023-02-02T15:48:08.962Z,3.90
2023-02-02T15:50:36.490Z,3.65
2023-02-02T15:53:03.344Z,3.53
2023-02-02T15:55:33.533Z,3.80
2023-02-02T15:58:01.269Z,3.85
2023-02-02T16:00:32.403Z,3.97
2023-02-02T16:03:12.075Z,4.50
2023-02-02T16:05:43.714Z,4.15
2023-02-02T16:08:34.126Z,3.95
2023-02-02T16:11:19.830Z,3.95
2023-02-02T16:14:08.187Z,4.10
2023-02-02T16:16:38.657Z,4.32
2023-02-02T16:19:19.709Z,5.25
2023-02-02T16:22:01.244Z,5.18
2023-02-02T16:24:34.652Z,4.50
2023-02-02T16:27:05.706Z,4.38
2023-02-02T16:29:33.800Z,4.45
2023-02-02T16:32:00.875Z,4.10
2023-02-02T16:34:42.103Z,5.07
2023-02-02T16:37:22.345Z,4.43
2023-02-02T16:39:49.735Z,4.20
2023-02-02T16:42:28.608Z,4.38
2023-02-02T16:44:57.350Z,4.28
